sensor_id;sensor_type;location;lat;lon;timestamp;P1;durP1;ratioP1;P2;durP2;ratioP2
1164;SDS011;571;50.930;6.926;2023-03-05T03:46:43;5.50;;;1.93;;
1164;SDS011;571;50.930;6.926;2023-03-05T03:49:12;6.20;;;1.97;;
1164;SDS011;571;50.930;6.926;2023-03-05T03:51:41;5.33;;;1.93;;
1164;SDS011;571;50.930;6.926;2023-03-05T03:54:07;5.80;;;2.10;;
1164;SDS011;571;50.930;6.926;2023-03-05T03:56:34;3.57;;;1.60;;
1164;SDS011;571;50.930;6.926;2023-03-05T03:59:01;3.70;;;1.87;;
1164;SDS011;571;50.930;6.926;2023-03-05T04:01:28;5.50;;;1.83;;
1164;SDS011;571;50.930;6.926;2023-03-05T04:03:56;3.40;;;1.80;;
1164;SDS011;571;50.930;6.926;2023-03-05T04:06:23;3.97;;;2.00;;
1164;SDS011;571;50.930;6.926;2023-03-05T04:08:49;6.83;;;2.40;;
1164;SDS011;571;50.930;6.926;2023-03-05T04:11:16;13.50;;;2.63;;
1164;SDS011;571;50.930;6.926;2023-03-05T04:13:43;10.33;;;2.00;;
1164;SDS011;571;50.930;6.926;2023-03-05T04:16:10;5.80;;;2.30;;
1164;SDS011;571;50.930;6.926;2023-03-05T04:18:37;7.43;;;5.20;;
1164;SDS011;571;50.930;6.926;2023-03-05T04:21:05;6.27;;;2.93;;
1164;SDS011;571;50.930;6.926;2023-03-05T04:23:32;4.37;;;2.50;;
1164;SDS011;571;50.930;6.926;2023-03-05T04:25:59;4.40;;;2.80;;
1164;SDS011;571;50.930;6.926;2023-03-05T04:28:26;6.33;;;2.57;;
1164;SDS011;571;50.930;6.926;2023-03-05T04:30:52;6.30;;;2.37;;
1164;SDS011;571;50.930;6.926;2023-03-05T04:33:19;4.63;;;2.27;;
1164;SDS011;571;50.930;6.926;2023-03-05T04:35:46;3.37;;;2.47;;
1164;SDS011;571;50.930;6.926;2023-03-05T04:38:14;8.40;;;2.70;;
1164;SDS011;571;50.930;6.926;2023-03-05T04:40:41;9.87;;;2.97;;
1164;SDS011;571;50.930;6.926;2023-03-05T04:43:09;7.33;;;2.10;;
1164;SDS011;571;50.930;6.926;2023-03-05T04:45:37;4.83;;;2.27;;
1164;SDS011;571;50.930;6.926;2023-03-05T04:48:05;3.70;;;2.70;;
1164;SDS011;571;50.930;6.926;2023-03-05T04:50:32;7.77;;;2.00;;
1164;SDS011;571;50.930;6.926;2023-03-05T04:52:58;10.50;;;1.83;;
1164;SDS011;571;50.930;6.926;2023-03-05T04:55:27;2.87;;;1.80;;
1164;SDS011;571;50.930;6.926;2023-03-05T04:57:53;7.27;;;2.30;;
1164;SDS011;571;50.930;6.926;2023-03-05T05:00:20;8.43;;;2.10;;
1164;SDS011;571;50.930;6.926;2023-03-05T05:02:48;7.73;;;2.60;;
1164;SDS011;571;50.930;6.926;2023-03-05T05:05:16;8.87;;;2.57;;
1164;SDS011;571;50.930;6.926;2023-03-05T05:07:45;4.80;;;2.90;;
1164;SDS011;571;50.930;6.926;2023-03-05T05:10:12;8.53;;;2.50;;
1164;SDS011;571;50.930;6.926;2023-03-05T05:12:41;6.73;;;2.10;;
1164;SDS011;571;50.930;6.926;2023-03-05T05:15:08;5.40;;;1.93;;
1164;SDS011;571;50.930;6.926;2023-03-05T05:17:37;10.63;;;1.90;;
1164;SDS011;571;50.930;6.926;2023-03-05T05:20:05;3.50;;;1.80;;
1164;SDS011;571;50.930;6.926;2023-03-05T05:22:35;5.33;;;2.23;;
1164;SDS011;571;50.930;6.926;2023-03-05T05:25:02;4.20;;;2.37;;
1164;SDS011;571;50.930;6.926;2023-03-05T05:27:30;6.00;;;2.90;;
1164;SDS011;571;50.930;6.926;2023-03-05T05:29:58;8.23;;;2.87;;
1164;SDS011;571;50.930;6.926;2023-03-05T05:32:25;8.43;;;2.40;;
1164;SDS011;571;50.930;6.926;2023-03-05T05:34:52;2.53;;;1.70;;
1164;SDS011;571;50.930;6.926;2023-03-05T05:37:20;3.83;;;2.03;;
1164;SDS011;571;50.930;6.926;2023-03-05T05:39:46;4.20;;;2.03;;
1164;SDS011;571;50.930;6.926;2023-03-05T05:42:14;4.60;;;2.10;;
1164;SDS011;571;50.930;6.926;2023-03-05T05:44:41;4.40;;;2.33;;
1164;SDS011;571;50.930;6.926;2023-03-05T05:47:09;4.93;;;2.83;;
1164;SDS011;571;50.930;6.926;2023-03-05T05:49:36;5.43;;;2.47;;
1164;SDS011;571;50.930;6.926;2023-03-05T05:52:03;5.53;;;2.03;;
1164;SDS011;571;50.930;6.926;2023-03-05T05:54:30;15.90;;;2.87;;
1164;SDS011;571;50.930;6.926;2023-03-05T05:56:56;4.60;;;2.63;;
1164;SDS011;571;50.930;6.926;2023-03-05T05:59:23;7.63;;;2.20;;
1164;SDS011;571;50.930;6.926;2023-03-05T06:01:50;6.33;;;2.13;;
1164;SDS011;571;50.930;6.926;2023-03-05T06:04:18;5.23;;;1.53;;
1164;SDS011;571;50.930;6.926;2023-03-05T06:06:45;8.93;;;3.40;;
1164;SDS011;571;50.930;6.926;2023-03-05T06:09:11;5.60;;;2.37;;
1164;SDS011;571;50.930;6.926;2023-03-05T06:11:38;5.90;;;3.40;;
1164;SDS011;571;50.930;6.926;2023-03-05T06:14:05;10.90;;;3.10;;
1164;SDS011;571;50.930;6.926;2023-03-05T06:16:33;4.90;;;3.47;;
1164;SDS011;571;50.930;6.926;2023-03-05T06:18:59;10.23;;;4.63;;
1164;SDS011;571;50.930;6.926;2023-03-05T06:21:29;7.70;;;2.40;;
1164;SDS011;571;50.930;6.926;2023-03-05T06:23:56;8.93;;;2.13;;
1164;SDS011;571;50.930;6.926;2023-03-05T06:26:23;6.40;;;2.80;;
1164;SDS011;571;50.930;6.926;2023-03-05T06:28:51;6.80;;;2.23;;
1164;SDS011;571;50.930;6.926;2023-03-05T06:31:19;9.70;;;4.70;;
1164;SDS011;571;50.930;6.926;2023-03-05T06:33:47;8.17;;;2.77;;
1164;SDS011;571;50.930;6.926;2023-03-05T06:36:15;10.03;;;3.00;;
1164;SDS011;571;50.930;6.926;2023-03-05T06:38:45;4.00;;;2.20;;
1164;SDS011;571;50.930;6.926;2023-03-05T06:41:12;4.53;;;2.63;;
1164;SDS011;571;50.930;6.926;2023-03-05T06:43:40;5.40;;;2.60;;
1164;SDS011;571;50.930;6.926;2023-03-05T06:46:09;6.17;;;2.63;;
1164;SDS011;571;50.930;6.926;2023-03-05T06:48:37;8.03;;;3.50;;
1164;SDS011;571;50.930;6.926;2023-03-05T06:51:04;7.70;;;3.83;;
1164;SDS011;571;50.930;6.926;2023-03-05T06:53:37;9.07;;;3.73;;
1164;SDS011;571;50.930;6.926;2023-03-05T06:56:05;9.93;;;4.37;;
1164;SDS011;571;50.930;6.926;2023-03-05T06:58:34;6.40;;;3.43;;
1164;SDS011;571;50.930;6.926;2023-03-05T07:01:06;6.37;;;2.93;;
1164;SDS011;571;50.930;6.926;2023-03-05T07:03:33;6.40;;;3.50;;
1164;SDS011;571;50.930;6.926;2023-03-05T07:06:01;6.80;;;2.97;;
1164;SDS011;571;50.930;6.926;2023-03-05T07:08:29;6.67;;;3.00;;
1164;SDS011;571;50.930;6.926;2023-03-05T07:10:56;8.03;;;3.97;;
1164;SDS011;571;50.930;6.926;2023-03-05T07:13:24;7.33;;;3.70;;
1164;SDS011;571;50.930;6.926;2023-03-05T07:15:51;5.43;;;3.43;;
1164;SDS011;571;50.930;6.926;2023-03-05T07:18:18;12.33;;;3.93;;
1164;SDS011;571;50.930;6.926;2023-03-05T07:20:46;9.13;;;3.17;;
1164;SDS011;571;50.930;6.926;2023-03-05T07:23:12;8.37;;;2.80;;
1164;SDS011;571;50.930;6.926;2023-03-05T07:25:39;5.70;;;3.10;;
1164;SDS011;571;50.930;6.926;2023-03-05T07:28:06;5.97;;;3.60;;
1164;SDS011;571;50.930;6.926;2023-03-05T07:30:35;14.40;;;4.00;;
1164;SDS011;571;50.930;6.926;2023-03-05T07:33:02;5.60;;;2.60;;
1164;SDS011;571;50.930;6.926;2023-03-05T07:35:29;5.37;;;2.63;;
1164;SDS011;571;50.930;6.926;2023-03-05T07:37:59;6.13;;;3.43;;
1164;SDS011;571;50.930;6.926;2023-03-05T07:40:27;11.83;;;3.10;;
1164;SDS011;571;50.930;6.926;2023-03-05T07:42:54;5.00;;;2.73;;
1164;SDS011;571;50.930;6.926;2023-03-05T07:45:20;6.87;;;3.40;;
1164;SDS011;571;50.930;6.926;2023-03-05T07:47:49;6.03;;;2.60;;
1164;SDS011;571;50.930;6.926;2023-03-05T07:50:15;7.40;;;2.97;;
1164;SDS011;571;50.930;6.926;2023-03-05T07:52:42;7.67;;;2.70;;
1164;SDS011;571;50.930;6.926;2023-03-05T07:55:12;8.23;;;2.90;;
1164;SDS011;571;50.930;6.926;2023-03-05T07:57:44;3.70;;;2.93;;
1164;SDS011;571;50.930;6.926;2023-03-05T08:00:11;6.67;;;2.90;;
1164;SDS011;571;50.930;6.926;2023-03-05T08:02:39;5.20;;;3.00;;
1164;SDS011;571;50.930;6.926;2023-03-05T08:05:07;8.40;;;2.93;;
1164;SDS011;571;50.930;6.926;2023-03-05T08:07:34;6.97;;;3.33;;
1164;SDS011;571;50.930;6.926;2023-03-05T08:10:00;9.07;;;2.97;;
1164;SDS011;571;50.930;6.926;2023-03-05T08:12:28;4.80;;;3.03;;
1164;SDS011;571;50.930;6.926;2023-03-05T08:14:55;6.70;;;2.57;;
1164;SDS011;571;50.930;6.926;2023-03-05T08:17:21;7.80;;;3.70;;
1164;SDS011;571;50.930;6.926;2023-03-05T08:19:48;8.13;;;3.80;;
1164;SDS011;571;50.930;6.926;2023-03-05T08:22:16;10.03;;;3.63;;
1164;SDS011;571;50.930;6.926;2023-03-05T08:24:44;7.90;;;3.90;;
1164;SDS011;571;50.930;6.926;2023-03-05T08:27:11;5.33;;;3.63;;
1164;SDS011;571;50.930;6.926;2023-03-05T08:29:37;7.50;;;3.13;;
1164;SDS011;571;50.930;6.926;2023-03-05T08:32:04;7.50;;;3.70;;
1164;SDS011;571;50.930;6.926;2023-03-05T08:34:31;9.93;;;4.20;;
1164;SDS011;571;50.930;6.926;2023-03-05T08:36:58;5.50;;;3.40;;
1164;SDS011;571;50.930;6.926;2023-03-05T08:39:26;7.07;;;3.87;;
1164;SDS011;571;50.930;6.926;2023-03-05T08:41:54;10.00;;;3.90;;
1164;SDS011;571;50.930;6.926;2023-03-05T08:44:20;7.17;;;3.67;;
1164;SDS011;571;50.930;6.926;2023-03-05T08:46:47;6.77;;;3.70;;
1164;SDS011;571;50.930;6.926;2023-03-05T08:49:14;9.37;;;3.63;;
1164;SDS011;571;50.930;6.926;2023-03-05T08:51:40;6.90;;;3.20;;
1164;SDS011;571;50.930;6.926;2023-03-05T08:54:08;7.17;;;3.87;;
1164;SDS011;571;50.930;6.926;2023-03-05T08:56:36;4.63;;;3.53;;
1164;SDS011;571;50.930;6.926;2023-03-05T08:59:03;5.97;;;4.03;;
1164;SDS011;571;50.930;6.926;2023-03-05T09:01:30;9.23;;;4.70;;
1164;SDS011;571;50.930;6.926;2023-03-05T09:03:57;7.90;;;3.97;;
1164;SDS011;571;50.930;6.926;2023-03-05T09:06:24;4.97;;;4.23;;
1164;SDS011;571;50.930;6.926;2023-03-05T09:08:52;6.90;;;3.70;;
1164;SDS011;571;50.930;6.926;2023-03-05T09:11:19;7.60;;;4.40;;
1164;SDS011;571;50.930;6.926;2023-03-05T09:13:48;5.37;;;4.03;;
1164;SDS011;571;50.930;6.926;2023-03-05T09:16:15;8.00;;;6.73;;
1164;SDS011;571;50.930;6.926;2023-03-05T09:18:43;11.20;;;4.20;;
1164;SDS011;571;50.930;6.926;2023-03-05T09:21:11;8.03;;;3.73;;
1164;SDS011;571;50.930;6.926;2023-03-05T09:23:40;8.83;;;4.10;;
1164;SDS011;571;50.930;6.926;2023-03-05T09:26:08;8.13;;;4.10;;
1164;SDS011;571;50.930;6.926;2023-03-05T09:28:37;9.00;;;4.17;;
1164;SDS011;571;50.930;6.926;2023-03-05T09:31:06;5.63;;;3.93;;
1164;SDS011;571;50.930;6.926;2023-03-05T09:33:34;17.47;;;5.17;;
1164;SDS011;571;50.930;6.926;2023-03-05T09:36:02;9.87;;;5.07;;
1164;SDS011;571;50.930;6.926;2023-03-05T09:38:30;5.93;;;4.00;;
1164;SDS011;571;50.930;6.926;2023-03-05T09:40:58;9.63;;;5.80;;
1164;SDS011;571;50.930;6.926;2023-03-05T09:43:33;5.63;;;4.30;;
1164;SDS011;571;50.930;6.926;2023-03-05T09:46:16;7.07;;;5.03;;
1164;SDS011;571;50.930;6.926;2023-03-05T09:48:55;8.50;;;5.10;;
1164;SDS011;571;50.930;6.926;2023-03-05T09:51:30;10.60;;;5.33;;
1164;SDS011;571;50.930;6.926;2023-03-05T09:54:02;7.60;;;5.33;;
1164;SDS011;571;50.930;6.926;2023-03-05T09:56:33;8.73;;;4.30;;
1164;SDS011;571;50.930;6.926;2023-03-05T09:59:02;9.20;;;5.00;;
1164;SDS011;571;50.930;6.926;2023-03-05T10:01:41;7.40;;;5.90;;
1164;SDS011;571;50.930;6.926;2023-03-05T10:04:10;7.13;;;6.10;;
1164;SDS011;571;50.930;6.926;2023-03-05T10:06:43;5.90;;;4.10;;
1164;SDS011;571;50.930;6.926;2023-03-05T10:09:16;6.43;;;4.73;;
1164;SDS011;571;50.930;6.926;2023-03-05T10:11:58;12.30;;;6.20;;
1164;SDS011;571;50.930;6.926;2023-03-05T10:14:28;14.47;;;5.77;;
1164;SDS011;571;50.930;6.926;2023-03-05T10:17:04;7.13;;;5.40;;
1164;SDS011;571;50.930;6.926;2023-03-05T10:20:15;6.67;;;5.20;;
1164;SDS011;571;50.930;6.926;2023-03-05T10:22:58;7.20;;;5.10;;
1164;SDS011;571;50.930;6.926;2023-03-05T10:25:33;6.20;;;5.70;;
1164;SDS011;571;50.930;6.926;2023-03-05T10:28:14;7.30;;;5.80;;
1164;SDS011;571;50.930;6.926;2023-03-05T10:30:50;7.50;;;5.80;;
1164;SDS011;571;50.930;6.926;2023-03-05T10:33:28;6.80;;;6.10;;
1164;SDS011;571;50.930;6.926;2023-03-05T10:38:58;9.07;;;6.60;;
1164;SDS011;571;50.930;6.926;2023-03-05T10:41:41;10.70;;;6.60;;
1164;SDS011;571;50.930;6.926;2023-03-05T10:44:19;10.60;;;7.60;;
1164;SDS011;571;50.930;6.926;2023-03-05T10:46:54;8.47;;;7.57;;
1164;SDS011;571;50.930;6.926;2023-03-05T10:49:25;10.23;;;8.10;;
1164;SDS011;571;50.930;6.926;2023-03-05T10:51:55;16.17;;;10.43;;
1164;SDS011;571;50.930;6.926;2023-03-05T10:54:29;11.40;;;8.83;;
1164;SDS011;571;50.930;6.926;2023-03-05T10:57:03;11.17;;;9.20;;
1164;SDS011;571;50.930;6.926;2023-03-05T10:59:40;13.07;;;10.33;;
1164;SDS011;571;50.930;6.926;2023-03-05T11:02:09;15.90;;;10.10;;
1164;SDS011;571;50.930;6.926;2023-03-05T11:04:37;10.73;;;8.40;;
1164;SDS011;571;50.930;6.926;2023-03-05T11:07:05;11.03;;;8.50;;
1164;SDS011;571;50.930;6.926;2023-03-05T11:09:33;9.77;;;7.30;;
1164;SDS011;571;50.930;6.926;2023-03-05T11:12:02;8.77;;;7.40;;
1164;SDS011;571;50.930;6.926;2023-03-05T11:14:32;7.80;;;7.00;;
1164;SDS011;571;50.930;6.926;2023-03-05T11:17:03;9.30;;;5.93;;
1164;SDS011;571;50.930;6.926;2023-03-05T11:19:53;9.40;;;7.70;;
1164;SDS011;571;50.930;6.926;2023-03-05T11:22:20;8.53;;;7.63;;
1164;SDS011;571;50.930;6.926;2023-03-05T11:25:02;10.67;;;8.80;;
1164;SDS011;571;50.930;6.926;2023-03-05T11:27:41;12.17;;;8.60;;
1164;SDS011;571;50.930;6.926;2023-03-05T11:30:17;10.00;;;8.07;;
1164;SDS011;571;50.930;6.926;2023-03-05T11:32:45;8.37;;;7.40;;
1164;SDS011;571;50.930;6.926;2023-03-05T11:35:28;8.87;;;8.07;;
1164;SDS011;571;50.930;6.926;2023-03-05T11:37:59;10.13;;;8.10;;
1164;SDS011;571;50.930;6.926;2023-03-05T11:40:28;8.33;;;7.20;;
1164;SDS011;571;50.930;6.926;2023-03-05T11:42:57;10.47;;;7.00;;
1164;SDS011;571;50.930;6.926;2023-03-05T11:45:25;7.13;;;6.20;;
1164;SDS011;571;50.930;6.926;2023-03-05T11:47:53;12.93;;;8.90;;
1164;SDS011;571;50.930;6.926;2023-03-05T11:50:24;10.67;;;8.17;;
1164;SDS011;571;50.930;6.926;2023-03-05T11:52:53;8.30;;;7.00;;
1164;SDS011;571;50.930;6.926;2023-03-05T11:55:25;9.47;;;8.50;;
1164;SDS011;571;50.930;6.926;2023-03-05T11:57:56;8.67;;;7.70;;
1164;SDS011;571;50.930;6.926;2023-03-05T12:00:29;12.00;;;7.90;;
1164;SDS011;571;50.930;6.926;2023-03-05T12:02:58;9.27;;;8.23;;
1164;SDS011;571;50.930;6.926;2023-03-05T12:05:30;10.67;;;6.80;;
1164;SDS011;571;50.930;6.926;2023-03-05T12:07:59;9.77;;;7.07;;
1164;SDS011;571;50.930;6.926;2023-03-05T12:10:27;9.80;;;8.87;;
1164;SDS011;571;50.930;6.926;2023-03-05T12:12:56;8.83;;;8.00;;
1164;SDS011;571;50.930;6.926;2023-03-05T12:18:32;8.00;;;7.20;;
1164;SDS011;571;50.930;6.926;2023-03-05T12:21:06;9.00;;;7.30;;
1164;SDS011;571;50.930;6.926;2023-03-05T12:23:46;8.40;;;6.83;;
1164;SDS011;571;50.930;6.926;2023-03-05T12:26:14;7.90;;;7.10;;
1164;SDS011;571;50.930;6.926;2023-03-05T12:28:54;8.60;;;7.90;;
1164;SDS011;571;50.930;6.926;2023-03-05T12:31:27;8.77;;;7.93;;
1164;SDS011;571;50.930;6.926;2023-03-05T12:37:12;10.10;;;8.47;;
1164;SDS011;571;50.930;6.926;2023-03-05T12:39:41;8.80;;;7.43;;
1164;SDS011;571;50.930;6.926;2023-03-05T12:45:29;9.70;;;7.20;;
1164;SDS011;571;50.930;6.926;2023-03-05T12:51:09;6.10;;;5.50;;
1164;SDS011;571;50.930;6.926;2023-03-05T12:53:39;8.93;;;7.40;;
1164;SDS011;571;50.930;6.926;2023-03-05T12:56:11;7.50;;;6.80;;
1164;SDS011;571;50.930;6.926;2023-03-05T12:58:43;8.67;;;7.77;;
1164;SDS011;571;50.930;6.926;2023-03-05T13:01:19;8.50;;;7.20;;
1164;SDS011;571;50.930;6.926;2023-03-05T13:03:55;8.30;;;6.83;;
1164;SDS011;571;50.930;6.926;2023-03-05T13:06:25;9.70;;;7.50;;
1164;SDS011;571;50.930;6.926;2023-03-05T13:08:59;7.90;;;6.17;;
1164;SDS011;571;50.930;6.926;2023-03-05T13:11:28;7.93;;;6.63;;
1164;SDS011;571;50.930;6.926;2023-03-05T13:13:58;11.63;;;7.63;;
1164;SDS011;571;50.930;6.926;2023-03-05T13:16:27;9.63;;;7.60;;
1164;SDS011;571;50.930;6.926;2023-03-05T13:18:56;9.33;;;7.93;;
1164;SDS011;571;50.930;6.926;2023-03-05T13:21:25;7.87;;;7.10;;
1164;SDS011;571;50.930;6.926;2023-03-05T13:23:54;7.97;;;7.20;;
1164;SDS011;571;50.930;6.926;2023-03-05T13:26:26;8.10;;;7.30;;
1164;SDS011;571;50.930;6.926;2023-03-05T13:29:07;8.63;;;6.63;;
1164;SDS011;571;50.930;6.926;2023-03-05T13:31:40;7.67;;;6.03;;
1164;SDS011;571;50.930;6.926;2023-03-05T13:34:10;7.30;;;6.47;;
1164;SDS011;571;50.930;6.926;2023-03-05T13:36:44;10.80;;;7.03;;
1164;SDS011;571;50.930;6.926;2023-03-05T13:39:16;7.50;;;6.23;;
1164;SDS011;571;50.930;6.926;2023-03-05T13:41:55;7.20;;;5.57;;
1164;SDS011;571;50.930;6.926;2023-03-05T13:44:24;7.53;;;6.73;;
1164;SDS011;571;50.930;6.926;2023-03-05T13:46:51;8.20;;;7.10;;
1164;SDS011;571;50.930;6.926;2023-03-05T13:49:20;9.70;;;8.43;;
1164;SDS011;571;50.930;6.926;2023-03-05T13:51:49;9.23;;;7.80;;
1164;SDS011;571;50.930;6.926;2023-03-05T13:54:17;9.20;;;8.30;;
1164;SDS011;571;50.930;6.926;2023-03-05T13:56:48;8.77;;;7.90;;
1164;SDS011;571;50.930;6.926;2023-03-05T13:59:18;8.90;;;7.13;;
1164;SDS011;571;50.930;6.926;2023-03-05T14:01:46;12.10;;;7.47;;
1164;SDS011;571;50.930;6.926;2023-03-05T14:04:16;8.73;;;7.93;;
1164;SDS011;571;50.930;6.926;2023-03-05T14:06:46;10.70;;;8.23;;
1164;SDS011;571;50.930;6.926;2023-03-05T14:09:18;8.10;;;7.30;;
1164;SDS011;571;50.930;6.926;2023-03-05T14:11:57;7.93;;;6.60;;
1164;SDS011;571;50.930;6.926;2023-03-05T14:14:27;7.90;;;6.90;;
1164;SDS011;571;50.930;6.926;2023-03-05T14:16:54;9.47;;;8.10;;
1164;SDS011;571;50.930;6.926;2023-03-05T14:19:30;11.10;;;6.17;;
1164;SDS011;571;50.930;6.926;2023-03-05T14:21:59;9.43;;;7.47;;
1164;SDS011;571;50.930;6.926;2023-03-05T14:24:27;7.60;;;5.10;;
1164;SDS011;571;50.930;6.926;2023-03-05T14:26:55;7.33;;;6.70;;
1164;SDS011;571;50.930;6.926;2023-03-05T14:29:24;7.67;;;6.73;;
1164;SDS011;571;50.930;6.926;2023-03-05T14:31:54;8.73;;;6.10;;
1164;SDS011;571;50.930;6.926;2023-03-05T14:34:24;7.70;;;7.00;;
1164;SDS011;571;50.930;6.926;2023-03-05T14:36:53;7.73;;;7.00;;
1164;SDS011;571;50.930;6.926;2023-03-05T14:39:28;12.30;;;7.53;;
1164;SDS011;571;50.930;6.926;2023-03-05T14:42:11;7.73;;;6.17;;
1164;SDS011;571;50.930;6.926;2023-03-05T14:44:55;7.93;;;6.67;;
1164;SDS011;571;50.930;6.926;2023-03-05T14:47:25;7.90;;;7.10;;
1164;SDS011;571;50.930;6.926;2023-03-05T14:49:53;13.10;;;7.20;;
1164;SDS011;571;50.930;6.926;2023-03-05T14:52:21;10.53;;;7.63;;
1164;SDS011;571;50.930;6.926;2023-03-05T14:54:52;8.13;;;6.87;;
1164;SDS011;571;50.930;6.926;2023-03-05T14:57:21;9.43;;;7.77;;
1164;SDS011;571;50.930;6.926;2023-03-05T14:59:51;7.83;;;7.03;;
1164;SDS011;571;50.930;6.926;2023-03-05T15:02:23;9.73;;;8.30;;
1164;SDS011;571;50.930;6.926;2023-03-05T15:04:51;9.60;;;8.60;;
1164;SDS011;571;50.930;6.926;2023-03-05T15:07:21;11.80;;;8.33;;
1164;SDS011;571;50.930;6.926;2023-03-05T15:09:51;10.43;;;7.80;;
1164;SDS011;571;50.930;6.926;2023-03-05T15:12:18;10.57;;;8.80;;
1164;SDS011;571;50.930;6.926;2023-03-05T15:14:49;9.40;;;8.13;;
1164;SDS011;571;50.930;6.926;2023-03-05T15:17:21;11.30;;;8.77;;
1164;SDS011;571;50.930;6.926;2023-03-05T15:19:51;8.23;;;7.47;;
1164;SDS011;571;50.930;6.926;2023-03-05T15:22:17;12.53;;;10.07;;
1164;SDS011;571;50.930;6.926;2023-03-05T15:24:44;10.27;;;7.73;;
1164;SDS011;571;50.930;6.926;2023-03-05T15:27:11;8.70;;;7.57;;
1164;SDS011;571;50.930;6.926;2023-03-05T15:29:38;12.70;;;8.50;;
1164;SDS011;571;50.930;6.926;2023-03-05T15:32:05;12.67;;;7.80;;
1164;SDS011;571;50.930;6.926;2023-03-05T15:34:34;8.37;;;7.57;;
1164;SDS011;571;50.930;6.926;2023-03-05T15:37:01;12.20;;;7.43;;
1164;SDS011;571;50.930;6.926;2023-03-05T15:39:28;8.90;;;7.73;;
1164;SDS011;571;50.930;6.926;2023-03-05T15:41:55;9.70;;;8.00;;
1164;SDS011;571;50.930;6.926;2023-03-05T15:44:22;8.00;;;7.20;;
1164;SDS011;571;50.930;6.926;2023-03-05T15:46:49;7.47;;;6.67;;
1164;SDS011;571;50.930;6.926;2023-03-05T15:49:15;9.60;;;8.60;;
1164;SDS011;571;50.930;6.926;2023-03-05T15:51:44;11.50;;;8.73;;
1164;SDS011;571;50.930;6.926;2023-03-05T15:54:11;10.07;;;7.60;;
1164;SDS011;571;50.930;6.926;2023-03-05T15:56:38;8.60;;;7.80;;
1164;SDS011;571;50.930;6.926;2023-03-05T15:59:05;9.70;;;8.80;;
1164;SDS011;571;50.930;6.926;2023-03-05T16:01:34;10.07;;;8.13;;
1164;SDS011;571;50.930;6.926;2023-03-05T16:04:01;12.77;;;9.00;;
1164;SDS011;571;50.930;6.926;2023-03-05T16:06:27;10.10;;;8.60;;
1164;SDS011;571;50.930;6.926;2023-03-05T16:08:57;12.00;;;9.90;;
1164;SDS011;571;50.930;6.926;2023-03-05T16:11:26;11.50;;;8.63;;
1164;SDS011;571;50.930;6.926;2023-03-05T16:13:56;10.13;;;8.60;;
1164;SDS011;571;50.930;6.926;2023-03-05T16:16:25;9.13;;;8.20;;
1164;SDS011;571;50.930;6.926;2023-03-05T16:18:52;11.80;;;9.50;;
1164;SDS011;571;50.930;6.926;2023-03-05T16:21:20;9.50;;;8.50;;
1164;SDS011;571;50.930;6.926;2023-03-05T16:23:46;9.27;;;8.37;;
1164;SDS011;571;50.930;6.926;2023-03-05T16:26:15;8.50;;;7.60;;
1164;SDS011;571;50.930;6.926;2023-03-05T16:28:42;11.17;;;8.87;;
1164;SDS011;571;50.930;6.926;2023-03-05T16:31:09;13.00;;;9.73;;
1164;SDS011;571;50.930;6.926;2023-03-05T16:33:36;12.70;;;9.93;;
1164;SDS011;571;50.930;6.926;2023-03-05T16:36:16;12.07;;;10.53;;
1164;SDS011;571;50.930;6.926;2023-03-05T16:38:46;13.30;;;10.27;;
1164;SDS011;571;50.930;6.926;2023-03-05T16:41:15;10.13;;;9.00;;
1164;SDS011;571;50.930;6.926;2023-03-05T16:43:43;10.00;;;9.00;;
1164;SDS011;571;50.930;6.926;2023-03-05T16:46:10;15.87;;;11.53;;
1164;SDS011;571;50.930;6.926;2023-03-05T16:48:38;12.43;;;10.23;;
1164;SDS011;571;50.930;6.926;2023-03-05T16:51:06;12.90;;;9.67;;
1164;SDS011;571;50.930;6.926;2023-03-05T16:53:33;10.70;;;9.60;;
1164;SDS011;571;50.930;6.926;2023-03-05T16:56:00;10.00;;;9.00;;
1164;SDS011;571;50.930;6.926;2023-03-05T16:58:29;11.00;;;9.90;;
1164;SDS011;571;50.930;6.926;2023-03-05T17:00:57;10.60;;;9.50;;
1164;SDS011;571;50.930;6.926;2023-03-05T17:03:24;9.63;;;8.67;;
1164;SDS011;571;50.930;6.926;2023-03-05T17:05:51;10.23;;;9.23;;
1164;SDS011;571;50.930;6.926;2023-03-05T17:08:18;12.40;;;9.60;;
1164;SDS011;571;50.930;6.926;2023-03-05T17:10:45;10.43;;;8.80;;
1164;SDS011;571;50.930;6.926;2023-03-05T17:13:12;9.40;;;8.40;;
1164;SDS011;571;50.930;6.926;2023-03-05T17:15:40;9.67;;;7.90;;
1164;SDS011;571;50.930;6.926;2023-03-05T17:18:06;9.73;;;7.10;;
1164;SDS011;571;50.930;6.926;2023-03-05T17:20:34;10.13;;;7.40;;
1164;SDS011;571;50.930;6.926;2023-03-05T17:23:00;9.53;;;7.17;;
1164;SDS011;571;50.930;6.926;2023-03-05T17:25:27;9.60;;;8.60;;
1164;SDS011;571;50.930;6.926;2023-03-05T17:27:55;9.77;;;8.67;;
1164;SDS011;571;50.930;6.926;2023-03-05T17:30:22;9.73;;;7.87;;
1164;SDS011;571;50.930;6.926;2023-03-05T17:32:51;8.13;;;7.33;;
1164;SDS011;571;50.930;6.926;2023-03-05T17:35:19;9.90;;;7.67;;
1164;SDS011;571;50.930;6.926;2023-03-05T17:37:47;10.37;;;8.47;;
1164;SDS011;571;50.930;6.926;2023-03-05T17:40:15;9.53;;;7.63;;
1164;SDS011;571;50.930;6.926;2023-03-05T17:42:41;10.23;;;8.53;;
1164;SDS011;571;50.930;6.926;2023-03-05T17:45:08;10.83;;;8.80;;
1164;SDS011;571;50.930;6.926;2023-03-05T17:47:36;7.87;;;7.07;;
1164;SDS011;571;50.930;6.926;2023-03-05T17:50:05;12.90;;;9.00;;
1164;SDS011;571;50.930;6.926;2023-03-05T17:52:32;10.03;;;7.97;;
1164;SDS011;571;50.930;6.926;2023-03-05T17:55:02;9.40;;;8.50;;
1164;SDS011;571;50.930;6.926;2023-03-05T17:57:32;9.67;;;8.70;;
1164;SDS011;571;50.930;6.926;2023-03-05T18:00:00;10.13;;;8.47;;
1164;SDS011;571;50.930;6.926;2023-03-05T18:02:27;9.77;;;8.80;;
1164;SDS011;571;50.930;6.926;2023-03-05T18:04:54;9.90;;;8.80;;
1164;SDS011;571;50.930;6.926;2023-03-05T18:07:22;10.53;;;7.97;;
1164;SDS011;571;50.930;6.926;2023-03-05T18:09:49;9.30;;;8.17;;
1164;SDS011;571;50.930;6.926;2023-03-05T18:12:15;9.33;;;8.43;;
1164;SDS011;571;50.930;6.926;2023-03-05T18:14:42;11.77;;;9.27;;
1164;SDS011;571;50.930;6.926;2023-03-05T18:17:09;9.70;;;8.00;;
1164;SDS011;571;50.930;6.926;2023-03-05T18:19:36;8.63;;;7.83;;
1164;SDS011;571;50.930;6.926;2023-03-05T18:22:02;10.93;;;7.10;;
1164;SDS011;571;50.930;6.926;2023-03-05T18:24:30;10.27;;;7.13;;
1164;SDS011;571;50.930;6.926;2023-03-05T18:26:57;8.77;;;7.83;;
1164;SDS011;571;50.930;6.926;2023-03-05T18:29:24;10.47;;;7.90;;
1164;SDS011;571;50.930;6.926;2023-03-05T18:31:51;8.70;;;7.80;;
1164;SDS011;571;50.930;6.926;2023-03-05T18:34:17;8.83;;;8.03;;
1164;SDS011;571;50.930;6.926;2023-03-05T18:36:45;8.60;;;7.43;;
1164;SDS011;571;50.930;6.926;2023-03-05T18:39:12;10.40;;;7.27;;
1164;SDS011;571;50.930;6.926;2023-03-05T18:41:41;9.20;;;7.00;;
1164;SDS011;571;50.930;6.926;2023-03-05T18:44:08;9.10;;;7.70;;
1164;SDS011;571;50.930;6.926;2023-03-05T18:46:35;9.33;;;8.33;;
1164;SDS011;571;50.930;6.926;2023-03-05T18:49:01;10.50;;;7.80;;
1164;SDS011;571;50.930;6.926;2023-03-05T18:51:28;10.00;;;8.87;;
1164;SDS011;571;50.930;6.926;2023-03-05T18:53:55;7.00;;;6.30;;
1164;SDS011;571;50.930;6.926;2023-03-05T18:56:22;7.97;;;7.10;;
1164;SDS011;571;50.930;6.926;2023-03-05T18:58:51;8.47;;;6.53;;
1164;SDS011;571;50.930;6.926;2023-03-05T19:01:17;9.17;;;8.13;;
1164;SDS011;571;50.930;6.926;2023-03-05T19:03:45;9.40;;;8.10;;
1164;SDS011;571;50.930;6.926;2023-03-05T19:06:13;8.60;;;7.67;;
1164;SDS011;571;50.930;6.926;2023-03-05T19:08:41;11.70;;;7.83;;
1164;SDS011;571;50.930;6.926;2023-03-05T19:11:12;13.80;;;7.20;;
1164;SDS011;571;50.930;6.926;2023-03-05T19:13:40;7.33;;;6.63;;
1164;SDS011;571;50.930;6.926;2023-03-05T19:16:10;7.70;;;6.90;;
1164;SDS011;571;50.930;6.926;2023-03-05T19:18:43;10.80;;;7.97;;
1164;SDS011;571;50.930;6.926;2023-03-05T19:21:28;8.97;;;6.97;;
1164;SDS011;571;50.930;6.926;2023-03-05T19:23:54;11.50;;;7.77;;
1164;SDS011;571;50.930;6.926;2023-03-05T19:26:22;8.50;;;6.73;;
1164;SDS011;571;50.930;6.926;2023-03-05T19:28:48;11.53;;;6.90;;
1164;SDS011;571;50.930;6.926;2023-03-05T19:31:16;8.80;;;7.80;;
1164;SDS011;571;50.930;6.926;2023-03-05T19:33:43;8.03;;;7.33;;
1164;SDS011;571;50.930;6.926;2023-03-05T19:36:10;9.83;;;7.50;;
1164;SDS011;571;50.930;6.926;2023-03-05T19:38:38;8.10;;;6.70;;